Flight Track Log - Related Links

Times and Time Zones

All times are in EDT time to prevent confusion due to time zone crossing. See the SWA561 flight status page for this flight to view local times or setup timezone preferences in your user account.

Time Position Orientation Groundspeed Altitude Reporting Facility
EDT Latitude Longitude Course Direction KTS MPH feet Rate Location/Type
Mon 08:46:44 PM 37.7333 -122.2667 149° Southeast 174 200 1,900  Level Northern Cal TRACON
Mon 08:47:25 PM 37.7547 -122.2928 316° Northwest 209 241 3,200 2,471 Climbing Oakland Center
Mon 08:48:26 PM 37.7142 -122.3619 233° Southwest 265 305 6,100 3,266 Climbing Oakland Center
Mon 08:48:44 PM 37.6833 -122.3833 209° Southwest 292 336 7,500 3,122 Climbing Northern Cal TRACON
Mon 08:50:29 PM 37.5519 -122.4036 187° South 337 388 12,500 3,361 Climbing Oakland Center
Mon 08:51:30 PM 37.4828 -122.3072 132° Southeast 373 429 16,800 3,197 Climbing Oakland Center
Mon 08:52:00 PM 37.4089 -122.4191 149° Southeast  Level FlightAware Approximate
Mon 08:52:31 PM 37.3969 -122.1906 133° Southeast 382 440 19,000  Level Oakland Center
Mon 08:53:32 PM 37.3197 -122.0922 135° Southeast 394 453 21,800 2,902 Climbing Oakland Center
Mon 08:54:33 PM 37.2414 -121.9897 134° Southeast 406 467 24,900 2,852 Climbing Oakland Center
Mon 08:55:34 PM 37.1603 -121.8831 134° Southeast 421 484 27,600 2,459 Climbing Oakland Center
Mon 08:56:35 PM 37.0753 -121.7736 134° Southeast 438 504 29,900 2,164 Climbing Oakland Center
Mon 08:57:36 PM 36.9878 -121.6628 135° Southeast 447 514 32,000 2,244 Climbing Oakland Center
Mon 08:58:38 PM 36.9000 -121.5497 134° Southeast 452 520 34,500 2,341 Climbing Oakland Center
Mon 08:59:39 PM 36.8081 -121.4283 133° Southeast 451 519 36,800 2,016 Climbing Oakland Center
Mon 09:00:40 PM 36.7217 -121.3194 135° Southeast 445 512 38,600 1,377 Climbing Oakland Center
Mon 09:01:41 PM 36.6347 -121.2092 134° Southeast 447 514 39,600 1,180 Climbing Oakland Center
Mon 09:02:42 PM 36.5483 -121.0961 134° Southeast 450 518 41,000 683 Climbing Oakland Center
Mon 09:03:44 PM 36.4614 -120.9881 135° Southeast 443 510 41,000  Level Oakland Center
Mon 09:04:45 PM 36.3758 -120.8803 135° Southeast 439 505 41,000  Level Oakland Center
Mon 09:05:46 PM 36.2900 -120.7714 134° Southeast 439 505 41,000  Level Oakland Center
Mon 09:06:47 PM 36.2036 -120.6667 136° Southeast 436 502 41,000  Level Oakland Center
Mon 09:07:48 PM 36.1014 -120.5383 135° Southeast 435 501 41,000  Level Oakland Center
Mon 09:08:49 PM 36.0164 -120.4303 134° Southeast 439 505 41,000  Level Oakland Center
Mon 09:09:50 PM 35.9308 -120.3253 135° Southeast 431 496 41,000  Level Oakland Center
Mon 09:10:52 PM 35.8447 -120.2189 135° Southeast 436 502 41,000  Level Oakland Center
Mon 09:11:53 PM 35.7575 -120.1125 135° Southeast 437 503 41,000  Level Oakland Center
Mon 09:12:54 PM 35.6697 -120.0050 135° Southeast 441 507 41,000  Level Oakland Center
Mon 09:13:55 PM 35.5719 -119.9125 142° Southeast 440 506 41,000  Level Oakland Center
Mon 09:14:56 PM 35.4692 -119.8236 145° Southeast 446 513 41,000  Level Oakland Center
Mon 09:15:55 PM 35.3672 -119.7369 145° Southeast 447 514 41,000 -397 Level Los Angeles Center
Mon 09:16:57 PM 35.2661 -119.6500 145° Southeast 444 511 40,200 -968 Descending Los Angeles Center
Mon 09:17:59 PM 35.1658 -119.5647 145° Southeast 439 505 39,000 -1,073 Descending Los Angeles Center
Mon 09:19:00 PM 35.0664 -119.4783 145° Southeast 439 505 38,000 -1,707 Descending Los Angeles Center
Mon 09:20:02 PM 34.9664 -119.3936 145° Southeast 437 503 35,500 -2,903 Descending Los Angeles Center
Mon 09:21:04 PM 34.8642 -119.3083 146° Southeast 442 509 32,000 -3,756 Descending Los Angeles Center
Mon 09:22:05 PM 34.7378 -119.2039 146° Southeast 454 522 27,800 -3,561 Descending Los Angeles Center
Mon 09:23:07 PM 34.6322 -119.1100 144° Southeast 457 526 24,700 -2,952 Descending Los Angeles Center
Mon 09:24:09 PM 34.5289 -119.0267 146° Southeast 445 512 21,700 -2,878 Descending Los Angeles Center
Mon 09:25:10 PM 34.4317 -118.9461 146° Southeast 422 486 18,800 -2,829 Descending Los Angeles Center
Mon 09:26:12 PM 34.3358 -118.8744 148° Southeast 399 459 15,900 -2,710 Descending Los Angeles Center
Mon 09:27:14 PM 34.2317 -118.8356 163° South 389 448 13,200 -2,146 Descending Los Angeles Center
Mon 09:28:15 PM 34.1331 -118.7997 163° South 368 423 11,500 -1,317 Descending Los Angeles Center
Mon 09:29:17 PM 34.0439 -118.7511 156° South 317 365 10,500 -726 Descending Los Angeles Center
Mon 09:30:19 PM 34.0281 -118.6469 100° East 290 334 10,000 -878 Descending Los Angeles Center
Mon 09:31:20 PM 34.0183 -118.5500 97° East 292 336 8,700 -1,366 Descending Los Angeles Center
Mon 09:32:22 PM 34.0106 -118.4561 96° East 282 325 7,200 -1,258 Descending Los Angeles Center
Mon 09:33:24 PM 34.0219 -118.3667 81° East 273 314 6,100 -1,500 Descending Los Angeles Center
Mon 09:34:26 PM 34.0294 -118.2886 83° East 244 281 4,100 -1,597 Descending Los Angeles Center
Mon 09:35:28 PM 33.9867 -118.2750 165° South 200 230 2,800 -1,161 Descending Los Angeles Center
Mon 09:36:30 PM 33.9614 -118.3175 234° Southwest 174 200 1,700 -976 Descending Los Angeles Center
Mon 09:37:31 PM 33.9572 -118.3653 264° West 156 180 800 -780 Descending Los Angeles Center
Mon 09:38:33 PM 33.9514 -118.4164 262° West 136 157 100 -677 Descending Los Angeles Center
Mon 09:40:00 PM 33.9425 -118.4081 228° Southwest  Level Estimated
Mon 09:47:00 PM 33.9425 -118.4081 228° Southwest  Level Estimated

Login

Don't have an account? Register now (free) for customized features, flight alerts, and more!